sensor_id;sensor_type;location;lat;lon;timestamp;temperature;humidity
30304;DHT22;17112;48.636;10.152;2023-03-11T00:00:10;5.40;57.70
30304;DHT22;17112;48.636;10.152;2023-03-11T00:02:39;5.40;57.80
30304;DHT22;17112;48.636;10.152;2023-03-11T00:05:06;5.40;57.80
30304;DHT22;17112;48.636;10.152;2023-03-11T00:07:32;5.40;57.80
30304;DHT22;17112;48.636;10.152;2023-03-11T00:09:58;5.40;57.90
30304;DHT22;17112;48.636;10.152;2023-03-11T00:12:24;5.40;57.60
30304;DHT22;17112;48.636;10.152;2023-03-11T00:14:49;5.40;58.00
30304;DHT22;17112;48.636;10.152;2023-03-11T00:17:15;5.40;58.00
30304;DHT22;17112;48.636;10.152;2023-03-11T00:19:41;5.30;58.00
30304;DHT22;17112;48.636;10.152;2023-03-11T00:22:06;5.30;57.90
30304;DHT22;17112;48.636;10.152;2023-03-11T00:24:33;5.30;58.00
30304;DHT22;17112;48.636;10.152;2023-03-11T00:26:58;5.30;58.00
30304;DHT22;17112;48.636;10.152;2023-03-11T00:29:24;5.30;58.10
30304;DHT22;17112;48.636;10.152;2023-03-11T00:31:50;5.30;58.10
30304;DHT22;17112;48.636;10.152;2023-03-11T00:34:16;5.30;58.20
30304;DHT22;17112;48.636;10.152;2023-03-11T00:36:41;5.20;58.10
30304;DHT22;17112;48.636;10.152;2023-03-11T00:39:07;5.20;58.10
30304;DHT22;17112;48.636;10.152;2023-03-11T00:41:34;5.20;58.80
30304;DHT22;17112;48.636;10.152;2023-03-11T00:44:00;5.20;58.10
30304;DHT22;17112;48.636;10.152;2023-03-11T00:46:26;5.20;58.10
30304;DHT22;17112;48.636;10.152;2023-03-11T00:48:52;5.10;58.00
30304;DHT22;17112;48.636;10.152;2023-03-11T00:51:18;5.10;57.60
30304;DHT22;17112;48.636;10.152;2023-03-11T00:53:45;5.10;57.40
30304;DHT22;17112;48.636;10.152;2023-03-11T00:56:12;5.10;57.40
30304;DHT22;17112;48.636;10.152;2023-03-11T00:58:39;5.00;57.50
30304;DHT22;17112;48.636;10.152;2023-03-11T01:01:23;5.00;57.70
30304;DHT22;17112;48.636;10.152;2023-03-11T01:03:48;5.00;57.60
30304;DHT22;17112;48.636;10.152;2023-03-11T01:06:14;4.90;57.30
30304;DHT22;17112;48.636;10.152;2023-03-11T01:08:40;4.90;57.60
30304;DHT22;17112;48.636;10.152;2023-03-11T01:11:07;4.90;57.50
30304;DHT22;17112;48.636;10.152;2023-03-11T01:13:33;4.80;57.50
30304;DHT22;17112;48.636;10.152;2023-03-11T01:15:59;4.80;57.50
30304;DHT22;17112;48.636;10.152;2023-03-11T01:18:26;4.80;57.80
30304;DHT22;17112;48.636;10.152;2023-03-11T01:20:52;4.80;57.60
30304;DHT22;17112;48.636;10.152;2023-03-11T01:23:19;4.80;57.80
30304;DHT22;17112;48.636;10.152;2023-03-11T01:25:44;4.80;57.80
30304;DHT22;17112;48.636;10.152;2023-03-11T01:28:10;4.80;57.80
30304;DHT22;17112;48.636;10.152;2023-03-11T01:30:39;4.80;57.50
30304;DHT22;17112;48.636;10.152;2023-03-11T01:33:06;4.80;57.90
30304;DHT22;17112;48.636;10.152;2023-03-11T01:35:32;4.80;57.90
30304;DHT22;17112;48.636;10.152;2023-03-11T01:38:00;4.80;57.90
30304;DHT22;17112;48.636;10.152;2023-03-11T01:40:30;4.80;57.90
30304;DHT22;17112;48.636;10.152;2023-03-11T01:42:56;4.80;58.00
30304;DHT22;17112;48.636;10.152;2023-03-11T01:46:01;4.80;58.10
30304;DHT22;17112;48.636;10.152;2023-03-11T01:48:28;4.80;58.10
30304;DHT22;17112;48.636;10.152;2023-03-11T01:50:55;4.80;58.10
30304;DHT22;17112;48.636;10.152;2023-03-11T01:53:21;4.80;57.80
30304;DHT22;17112;48.636;10.152;2023-03-11T01:55:48;4.70;58.10
30304;DHT22;17112;48.636;10.152;2023-03-11T01:58:17;4.70;58.20
30304;DHT22;17112;48.636;10.152;2023-03-11T02:00:45;4.70;58.20
30304;DHT22;17112;48.636;10.152;2023-03-11T02:03:26;4.70;58.30
30304;DHT22;17112;48.636;10.152;2023-03-11T02:05:55;4.60;58.30
30304;DHT22;17112;48.636;10.152;2023-03-11T02:08:21;4.70;58.50
30304;DHT22;17112;48.636;10.152;2023-03-11T02:10:48;4.60;58.50
30304;DHT22;17112;48.636;10.152;2023-03-11T02:13:17;4.70;58.60
30304;DHT22;17112;48.636;10.152;2023-03-11T02:15:43;4.60;58.70
30304;DHT22;17112;48.636;10.152;2023-03-11T02:18:11;4.60;58.70
30304;DHT22;17112;48.636;10.152;2023-03-11T02:21:26;4.60;58.20
30304;DHT22;17112;48.636;10.152;2023-03-11T02:24:06;4.60;58.40
30304;DHT22;17112;48.636;10.152;2023-03-11T02:29:16;4.60;58.10
30304;DHT22;17112;48.636;10.152;2023-03-11T02:31:43;4.60;58.20
30304;DHT22;17112;48.636;10.152;2023-03-11T02:34:15;4.60;58.20
30304;DHT22;17112;48.636;10.152;2023-03-11T02:36:43;4.60;58.20
30304;DHT22;17112;48.636;10.152;2023-03-11T02:39:08;4.50;58.20
30304;DHT22;17112;48.636;10.152;2023-03-11T02:41:37;4.50;58.30
30304;DHT22;17112;48.636;10.152;2023-03-11T02:44:09;4.50;58.20
30304;DHT22;17112;48.636;10.152;2023-03-11T02:46:36;4.50;58.20
30304;DHT22;17112;48.636;10.152;2023-03-11T02:49:04;4.60;58.40
30304;DHT22;17112;48.636;10.152;2023-03-11T02:51:30;4.50;58.50
30304;DHT22;17112;48.636;10.152;2023-03-11T02:54:00;4.50;58.40
30304;DHT22;17112;48.636;10.152;2023-03-11T02:56:27;4.50;58.30
30304;DHT22;17112;48.636;10.152;2023-03-11T02:58:53;4.50;58.30
30304;DHT22;17112;48.636;10.152;2023-03-11T03:01:19;4.60;58.40
30304;DHT22;17112;48.636;10.152;2023-03-11T03:03:44;4.50;58.30
30304;DHT22;17112;48.636;10.152;2023-03-11T03:06:10;4.50;58.20
30304;DHT22;17112;48.636;10.152;2023-03-11T03:08:36;4.50;58.20
30304;DHT22;17112;48.636;10.152;2023-03-11T03:11:01;4.50;58.30
30304;DHT22;17112;48.636;10.152;2023-03-11T03:13:28;4.50;58.50
30304;DHT22;17112;48.636;10.152;2023-03-11T03:15:54;4.50;58.40
30304;DHT22;17112;48.636;10.152;2023-03-11T03:18:20;4.50;58.30
30304;DHT22;17112;48.636;10.152;2023-03-11T03:20:45;4.50;58.10
30304;DHT22;17112;48.636;10.152;2023-03-11T03:23:11;4.50;57.90
30304;DHT22;17112;48.636;10.152;2023-03-11T03:25:37;4.50;57.50
30304;DHT22;17112;48.636;10.152;2023-03-11T03:28:05;4.40;56.80
30304;DHT22;17112;48.636;10.152;2023-03-11T03:30:31;4.40;57.30
30304;DHT22;17112;48.636;10.152;2023-03-11T03:32:57;4.40;57.30
30304;DHT22;17112;48.636;10.152;2023-03-11T03:35:23;4.30;57.10
30304;DHT22;17112;48.636;10.152;2023-03-11T03:37:48;4.30;57.40
30304;DHT22;17112;48.636;10.152;2023-03-11T03:40:14;4.30;57.30
30304;DHT22;17112;48.636;10.152;2023-03-11T03:42:40;4.30;57.10
30304;DHT22;17112;48.636;10.152;2023-03-11T03:45:07;4.20;57.00
30304;DHT22;17112;48.636;10.152;2023-03-11T03:47:33;4.20;57.00
30304;DHT22;17112;48.636;10.152;2023-03-11T03:49:59;4.20;57.30
30304;DHT22;17112;48.636;10.152;2023-03-11T03:52:25;4.20;57.10
30304;DHT22;17112;48.636;10.152;2023-03-11T03:54:50;4.20;57.00
30304;DHT22;17112;48.636;10.152;2023-03-11T03:57:16;4.20;57.40
30304;DHT22;17112;48.636;10.152;2023-03-11T03:59:42;4.30;57.40
30304;DHT22;17112;48.636;10.152;2023-03-11T04:02:08;4.10;57.40
30304;DHT22;17112;48.636;10.152;2023-03-11T04:04:33;4.10;57.30
30304;DHT22;17112;48.636;10.152;2023-03-11T04:06:59;4.10;57.50
30304;DHT22;17112;48.636;10.152;2023-03-11T04:09:25;4.10;57.50
30304;DHT22;17112;48.636;10.152;2023-03-11T04:11:50;4.10;57.50
30304;DHT22;17112;48.636;10.152;2023-03-11T04:14:16;4.10;57.20
30304;DHT22;17112;48.636;10.152;2023-03-11T04:16:42;4.10;57.00
30304;DHT22;17112;48.636;10.152;2023-03-11T04:19:08;4.00;56.90
30304;DHT22;17112;48.636;10.152;2023-03-11T04:21:34;4.00;57.10
30304;DHT22;17112;48.636;10.152;2023-03-11T04:23:59;4.00;57.10
30304;DHT22;17112;48.636;10.152;2023-03-11T04:26:26;3.90;57.00
30304;DHT22;17112;48.636;10.152;2023-03-11T04:28:52;3.90;57.10
30304;DHT22;17112;48.636;10.152;2023-03-11T04:31:18;3.90;57.20
30304;DHT22;17112;48.636;10.152;2023-03-11T04:33:44;3.90;57.30
30304;DHT22;17112;48.636;10.152;2023-03-11T04:36:11;3.90;57.40
30304;DHT22;17112;48.636;10.152;2023-03-11T04:38:37;3.90;57.60
30304;DHT22;17112;48.636;10.152;2023-03-11T04:41:04;3.90;57.80
30304;DHT22;17112;48.636;10.152;2023-03-11T04:43:30;4.00;57.80
30304;DHT22;17112;48.636;10.152;2023-03-11T04:45:55;4.00;57.80
30304;DHT22;17112;48.636;10.152;2023-03-11T04:48:21;4.00;57.90
30304;DHT22;17112;48.636;10.152;2023-03-11T04:50:47;4.00;57.80
30304;DHT22;17112;48.636;10.152;2023-03-11T04:53:12;3.90;57.80
30304;DHT22;17112;48.636;10.152;2023-03-11T04:55:38;4.10;57.90
30304;DHT22;17112;48.636;10.152;2023-03-11T04:58:04;3.90;58.00
30304;DHT22;17112;48.636;10.152;2023-03-11T05:00:30;3.80;57.90
30304;DHT22;17112;48.636;10.152;2023-03-11T05:02:55;3.80;58.10
30304;DHT22;17112;48.636;10.152;2023-03-11T05:05:21;3.80;58.20
30304;DHT22;17112;48.636;10.152;2023-03-11T05:07:47;3.90;58.30
30304;DHT22;17112;48.636;10.152;2023-03-11T05:10:14;3.80;58.40
30304;DHT22;17112;48.636;10.152;2023-03-11T05:12:39;3.80;58.50
30304;DHT22;17112;48.636;10.152;2023-03-11T05:15:06;3.80;58.30
30304;DHT22;17112;48.636;10.152;2023-03-11T05:17:31;3.80;58.00
30304;DHT22;17112;48.636;10.152;2023-03-11T05:19:57;3.80;57.80
30304;DHT22;17112;48.636;10.152;2023-03-11T05:22:23;3.80;57.70
30304;DHT22;17112;48.636;10.152;2023-03-11T05:24:49;3.90;58.50
30304;DHT22;17112;48.636;10.152;2023-03-11T05:27:15;3.70;57.80
30304;DHT22;17112;48.636;10.152;2023-03-11T05:29:43;3.60;57.70
30304;DHT22;17112;48.636;10.152;2023-03-11T05:32:10;3.60;57.30
30304;DHT22;17112;48.636;10.152;2023-03-11T05:34:36;3.60;57.60
30304;DHT22;17112;48.636;10.152;2023-03-11T05:37:02;3.60;57.70
30304;DHT22;17112;48.636;10.152;2023-03-11T05:39:32;3.60;57.80
30304;DHT22;17112;48.636;10.152;2023-03-11T05:41:58;3.50;57.70
30304;DHT22;17112;48.636;10.152;2023-03-11T05:44:24;3.50;57.60
30304;DHT22;17112;48.636;10.152;2023-03-11T05:46:49;3.50;57.60
30304;DHT22;17112;48.636;10.152;2023-03-11T05:49:15;3.50;57.80
30304;DHT22;17112;48.636;10.152;2023-03-11T05:51:41;3.50;57.80
30304;DHT22;17112;48.636;10.152;2023-03-11T05:54:07;3.50;57.90
30304;DHT22;17112;48.636;10.152;2023-03-11T05:56:40;3.50;57.80
30304;DHT22;17112;48.636;10.152;2023-03-11T05:59:07;3.80;58.00
30304;DHT22;17112;48.636;10.152;2023-03-11T06:01:33;3.50;58.00
30304;DHT22;17112;48.636;10.152;2023-03-11T06:03:59;3.40;57.90
30304;DHT22;17112;48.636;10.152;2023-03-11T06:06:24;3.40;57.90
30304;DHT22;17112;48.636;10.152;2023-03-11T06:08:50;3.40;57.90
30304;DHT22;17112;48.636;10.152;2023-03-11T06:11:16;3.50;58.10
30304;DHT22;17112;48.636;10.152;2023-03-11T06:13:42;3.50;58.10
30304;DHT22;17112;48.636;10.152;2023-03-11T06:16:08;3.40;58.10
30304;DHT22;17112;48.636;10.152;2023-03-11T06:18:34;3.40;58.00
30304;DHT22;17112;48.636;10.152;2023-03-11T06:21:01;3.40;58.00
30304;DHT22;17112;48.636;10.152;2023-03-11T06:23:28;3.40;58.00
30304;DHT22;17112;48.636;10.152;2023-03-11T06:26:04;3.60;58.00
30304;DHT22;17112;48.636;10.152;2023-03-11T06:28:30;3.40;58.10
30304;DHT22;17112;48.636;10.152;2023-03-11T06:31:10;3.40;58.20
30304;DHT22;17112;48.636;10.152;2023-03-11T06:33:36;3.50;58.10
30304;DHT22;17112;48.636;10.152;2023-03-11T06:36:03;3.40;58.00
30304;DHT22;17112;48.636;10.152;2023-03-11T06:38:29;3.40;58.10
30304;DHT22;17112;48.636;10.152;2023-03-11T06:41:00;3.40;58.30
30304;DHT22;17112;48.636;10.152;2023-03-11T06:43:26;3.40;58.40
30304;DHT22;17112;48.636;10.152;2023-03-11T06:45:51;3.70;58.60
30304;DHT22;17112;48.636;10.152;2023-03-11T06:48:17;3.50;58.50
30304;DHT22;17112;48.636;10.152;2023-03-11T06:50:43;3.60;58.60
30304;DHT22;17112;48.636;10.152;2023-03-11T06:53:08;3.60;58.40
30304;DHT22;17112;48.636;10.152;2023-03-11T06:55:34;3.80;58.40
30304;DHT22;17112;48.636;10.152;2023-03-11T06:58:00;3.70;58.20
30304;DHT22;17112;48.636;10.152;2023-03-11T07:00:26;3.80;58.20
30304;DHT22;17112;48.636;10.152;2023-03-11T07:02:52;3.80;58.10
30304;DHT22;17112;48.636;10.152;2023-03-11T07:05:18;3.80;58.20
30304;DHT22;17112;48.636;10.152;2023-03-11T07:07:43;3.90;58.40
30304;DHT22;17112;48.636;10.152;2023-03-11T07:10:09;3.90;58.20
30304;DHT22;17112;48.636;10.152;2023-03-11T07:12:35;4.00;58.20
30304;DHT22;17112;48.636;10.152;2023-03-11T07:15:01;4.00;58.20
30304;DHT22;17112;48.636;10.152;2023-03-11T07:17:27;4.10;58.30
30304;DHT22;17112;48.636;10.152;2023-03-11T07:19:53;4.20;58.00
30304;DHT22;17112;48.636;10.152;2023-03-11T07:22:19;4.30;57.90
30304;DHT22;17112;48.636;10.152;2023-03-11T07:24:48;4.30;57.40
30304;DHT22;17112;48.636;10.152;2023-03-11T07:27:14;4.30;57.20
30304;DHT22;17112;48.636;10.152;2023-03-11T07:29:40;4.30;56.90
30304;DHT22;17112;48.636;10.152;2023-03-11T07:32:07;4.20;57.00
30304;DHT22;17112;48.636;10.152;2023-03-11T07:34:33;4.20;57.00
30304;DHT22;17112;48.636;10.152;2023-03-11T07:36:58;4.10;57.10
30304;DHT22;17112;48.636;10.152;2023-03-11T07:39:24;4.10;57.10
30304;DHT22;17112;48.636;10.152;2023-03-11T07:41:50;4.10;57.30
30304;DHT22;17112;48.636;10.152;2023-03-11T07:44:16;4.00;57.40
30304;DHT22;17112;48.636;10.152;2023-03-11T07:46:42;4.00;57.40
30304;DHT22;17112;48.636;10.152;2023-03-11T07:49:08;4.00;57.20
30304;DHT22;17112;48.636;10.152;2023-03-11T07:51:35;4.00;57.30
30304;DHT22;17112;48.636;10.152;2023-03-11T07:54:01;4.00;57.30
30304;DHT22;17112;48.636;10.152;2023-03-11T07:56:30;4.00;57.30
30304;DHT22;17112;48.636;10.152;2023-03-11T07:58:58;3.90;57.20
30304;DHT22;17112;48.636;10.152;2023-03-11T08:01:25;3.90;57.40
30304;DHT22;17112;48.636;10.152;2023-03-11T08:03:52;3.90;57.50
30304;DHT22;17112;48.636;10.152;2023-03-11T08:06:28;3.90;57.10
30304;DHT22;17112;48.636;10.152;2023-03-11T08:08:56;3.90;57.00
30304;DHT22;17112;48.636;10.152;2023-03-11T08:11:23;3.90;57.20
30304;DHT22;17112;48.636;10.152;2023-03-11T08:13:50;3.90;57.60
30304;DHT22;17112;48.636;10.152;2023-03-11T08:16:17;4.00;57.80
30304;DHT22;17112;48.636;10.152;2023-03-11T08:18:45;4.10;58.10
30304;DHT22;17112;48.636;10.152;2023-03-11T08:21:15;4.30;58.40
30304;DHT22;17112;48.636;10.152;2023-03-11T08:23:43;4.40;57.80
30304;DHT22;17112;48.636;10.152;2023-03-11T08:26:13;4.60;57.30
30304;DHT22;17112;48.636;10.152;2023-03-11T08:28:40;4.70;57.50
30304;DHT22;17112;48.636;10.152;2023-03-11T08:31:21;4.80;56.90
30304;DHT22;17112;48.636;10.152;2023-03-11T08:33:49;4.90;56.80
30304;DHT22;17112;48.636;10.152;2023-03-11T08:36:16;4.90;57.10
30304;DHT22;17112;48.636;10.152;2023-03-11T08:38:42;5.10;56.90
30304;DHT22;17112;48.636;10.152;2023-03-11T08:41:08;5.40;56.80
30304;DHT22;17112;48.636;10.152;2023-03-11T08:43:33;5.20;56.40
30304;DHT22;17112;48.636;10.152;2023-03-11T08:46:03;5.30;56.30
30304;DHT22;17112;48.636;10.152;2023-03-11T08:48:31;5.40;56.10
30304;DHT22;17112;48.636;10.152;2023-03-11T08:50:56;5.50;55.90
30304;DHT22;17112;48.636;10.152;2023-03-11T08:53:23;5.60;55.90
30304;DHT22;17112;48.636;10.152;2023-03-11T08:55:50;5.60;55.90
30304;DHT22;17112;48.636;10.152;2023-03-11T08:58:16;5.70;55.30
30304;DHT22;17112;48.636;10.152;2023-03-11T09:00:41;5.70;55.20
30304;DHT22;17112;48.636;10.152;2023-03-11T09:03:07;5.60;54.70
30304;DHT22;17112;48.636;10.152;2023-03-11T09:05:33;5.60;54.90
30304;DHT22;17112;48.636;10.152;2023-03-11T09:07:58;5.60;55.60
30304;DHT22;17112;48.636;10.152;2023-03-11T09:10:24;5.70;55.70
30304;DHT22;17112;48.636;10.152;2023-03-11T09:12:50;5.80;55.20
30304;DHT22;17112;48.636;10.152;2023-03-11T09:15:15;5.80;54.00
30304;DHT22;17112;48.636;10.152;2023-03-11T09:17:41;5.80;54.10
30304;DHT22;17112;48.636;10.152;2023-03-11T09:20:07;5.80;53.90
30304;DHT22;17112;48.636;10.152;2023-03-11T09:22:33;5.80;54.20
30304;DHT22;17112;48.636;10.152;2023-03-11T09:24:58;5.80;54.60
30304;DHT22;17112;48.636;10.152;2023-03-11T09:27:24;6.00;55.50
30304;DHT22;17112;48.636;10.152;2023-03-11T09:29:50;6.10;55.20
30304;DHT22;17112;48.636;10.152;2023-03-11T09:32:15;6.30;54.60
30304;DHT22;17112;48.636;10.152;2023-03-11T09:34:41;6.40;54.20
30304;DHT22;17112;48.636;10.152;2023-03-11T09:37:07;6.50;53.40
30304;DHT22;17112;48.636;10.152;2023-03-11T09:39:33;6.40;52.80
30304;DHT22;17112;48.636;10.152;2023-03-11T09:45:16;6.30;52.80
30304;DHT22;17112;48.636;10.152;2023-03-11T09:50:34;6.20;52.90
30304;DHT22;17112;48.636;10.152;2023-03-11T09:53:41;6.20;52.80
30304;DHT22;17112;48.636;10.152;2023-03-11T09:56:14;6.20;53.40
30304;DHT22;17112;48.636;10.152;2023-03-11T09:58:48;6.30;52.30
30304;DHT22;17112;48.636;10.152;2023-03-11T10:01:29;6.40;53.20
30304;DHT22;17112;48.636;10.152;2023-03-11T10:04:03;6.50;53.80
30304;DHT22;17112;48.636;10.152;2023-03-11T10:06:32;6.50;52.10
30304;DHT22;17112;48.636;10.152;2023-03-11T10:15:23;6.70;51.80
30304;DHT22;17112;48.636;10.152;2023-03-11T10:18:14;6.70;51.50
30304;DHT22;17112;48.636;10.152;2023-03-11T10:23:47;6.80;52.00
30304;DHT22;17112;48.636;10.152;2023-03-11T10:26:24;6.80;51.40
30304;DHT22;17112;48.636;10.152;2023-03-11T10:31:51;6.80;51.20
30304;DHT22;17112;48.636;10.152;2023-03-11T10:37:26;7.00;51.40
30304;DHT22;17112;48.636;10.152;2023-03-11T10:39:54;7.00;51.30
30304;DHT22;17112;48.636;10.152;2023-03-11T10:42:24;7.00;51.50
30304;DHT22;17112;48.636;10.152;2023-03-11T10:44:52;7.00;51.30
30304;DHT22;17112;48.636;10.152;2023-03-11T10:47:23;7.00;51.30
30304;DHT22;17112;48.636;10.152;2023-03-11T10:49:50;7.10;51.10
30304;DHT22;17112;48.636;10.152;2023-03-11T10:52:17;7.10;50.90
30304;DHT22;17112;48.636;10.152;2023-03-11T10:54:46;7.00;48.40
30304;DHT22;17112;48.636;10.152;2023-03-11T10:57:25;7.00;49.40
30304;DHT22;17112;48.636;10.152;2023-03-11T10:59:54;6.90;48.10
30304;DHT22;17112;48.636;10.152;2023-03-11T11:05:24;6.90;49.70
30304;DHT22;17112;48.636;10.152;2023-03-11T11:08:14;6.90;49.20
30304;DHT22;17112;48.636;10.152;2023-03-11T11:13:19;6.90;50.10
30304;DHT22;17112;48.636;10.152;2023-03-11T11:18:25;7.00;49.70
30304;DHT22;17112;48.636;10.152;2023-03-11T11:23:39;7.10;50.50
30304;DHT22;17112;48.636;10.152;2023-03-11T11:26:22;7.20;51.00
30304;DHT22;17112;48.636;10.152;2023-03-11T11:31:42;7.50;50.60
30304;DHT22;17112;48.636;10.152;2023-03-11T11:36:49;7.90;49.90
30304;DHT22;17112;48.636;10.152;2023-03-11T11:39:17;8.10;50.40
30304;DHT22;17112;48.636;10.152;2023-03-11T11:41:48;8.10;49.70
30304;DHT22;17112;48.636;10.152;2023-03-11T11:44:18;8.20;50.00
30304;DHT22;17112;48.636;10.152;2023-03-11T11:46:50;8.20;50.10
30304;DHT22;17112;48.636;10.152;2023-03-11T11:49:28;8.20;48.10
30304;DHT22;17112;48.636;10.152;2023-03-11T11:52:12;8.20;48.50
30304;DHT22;17112;48.636;10.152;2023-03-11T11:57:15;8.20;48.80
30304;DHT22;17112;48.636;10.152;2023-03-11T11:59:42;8.10;47.90
30304;DHT22;17112;48.636;10.152;2023-03-11T12:10:52;8.00;48.20
30304;DHT22;17112;48.636;10.152;2023-03-11T12:26:51;7.90;48.70
30304;DHT22;17112;48.636;10.152;2023-03-11T12:29:28;8.00;49.40
30304;DHT22;17112;48.636;10.152;2023-03-11T12:31:56;8.00;49.10
30304;DHT22;17112;48.636;10.152;2023-03-11T12:34:24;8.20;49.20
30304;DHT22;17112;48.636;10.152;2023-03-11T12:36:50;8.30;49.90
30304;DHT22;17112;48.636;10.152;2023-03-11T12:39:27;8.40;47.80
30304;DHT22;17112;48.636;10.152;2023-03-11T12:44:39;8.60;46.60
30304;DHT22;17112;48.636;10.152;2023-03-11T12:47:21;8.50;47.60
30304;DHT22;17112;48.636;10.152;2023-03-11T12:49:52;8.50;47.20
30304;DHT22;17112;48.636;10.152;2023-03-11T12:52:24;8.40;47.30
30304;DHT22;17112;48.636;10.152;2023-03-11T13:08:43;8.50;46.60
30304;DHT22;17112;48.636;10.152;2023-03-11T13:11:47;8.60;47.70
30304;DHT22;17112;48.636;10.152;2023-03-11T13:14:30;8.70;48.40
30304;DHT22;17112;48.636;10.152;2023-03-11T13:17:17;8.90;48.20
30304;DHT22;17112;48.636;10.152;2023-03-11T13:19:56;9.10;48.80
30304;DHT22;17112;48.636;10.152;2023-03-11T13:28:01;9.90;45.90
30304;DHT22;17112;48.636;10.152;2023-03-11T13:30:36;9.90;45.50
30304;DHT22;17112;48.636;10.152;2023-03-11T13:36:35;9.80;45.00
30304;DHT22;17112;48.636;10.152;2023-03-11T13:41:41;9.40;45.00
30304;DHT22;17112;48.636;10.152;2023-03-11T13:46:52;9.10;45.30
30304;DHT22;17112;48.636;10.152;2023-03-11T13:52:25;9.00;45.70
30304;DHT22;17112;48.636;10.152;2023-03-11T13:55:00;9.00;45.00
30304;DHT22;17112;48.636;10.152;2023-03-11T13:57:28;9.00;45.10
30304;DHT22;17112;48.636;10.152;2023-03-11T13:59:55;9.00;46.60
30304;DHT22;17112;48.636;10.152;2023-03-11T14:02:25;9.10;45.70
30304;DHT22;17112;48.636;10.152;2023-03-11T14:05:03;9.20;44.90
30304;DHT22;17112;48.636;10.152;2023-03-11T14:07:31;9.30;45.70
30304;DHT22;17112;48.636;10.152;2023-03-11T14:12:46;9.60;43.10
30304;DHT22;17112;48.636;10.152;2023-03-11T14:15:23;9.70;45.00
30304;DHT22;17112;48.636;10.152;2023-03-11T14:17:52;9.80;43.90
30304;DHT22;17112;48.636;10.152;2023-03-11T14:20:22;10.00;44.60
30304;DHT22;17112;48.636;10.152;2023-03-11T14:22:53;10.10;43.90
30304;DHT22;17112;48.636;10.152;2023-03-11T14:25:25;10.20;44.00
30304;DHT22;17112;48.636;10.152;2023-03-11T14:27:58;10.20;43.50
30304;DHT22;17112;48.636;10.152;2023-03-11T14:30:29;10.20;43.50
30304;DHT22;17112;48.636;10.152;2023-03-11T14:35:25;10.40;44.20
30304;DHT22;17112;48.636;10.152;2023-03-11T14:37:51;10.60;44.50
30304;DHT22;17112;48.636;10.152;2023-03-11T14:40:33;10.70;44.80
30304;DHT22;17112;48.636;10.152;2023-03-11T14:43:04;11.00;43.50
30304;DHT22;17112;48.636;10.152;2023-03-11T14:45:33;11.20;44.60
30304;DHT22;17112;48.636;10.152;2023-03-11T14:48:13;11.40;44.10
30304;DHT22;17112;48.636;10.152;2023-03-11T14:50:42;11.60;43.50
30304;DHT22;17112;48.636;10.152;2023-03-11T14:53:13;11.80;43.70
30304;DHT22;17112;48.636;10.152;2023-03-11T14:56:04;12.00;43.70
30304;DHT22;17112;48.636;10.152;2023-03-11T15:06:52;12.20;40.10
30304;DHT22;17112;48.636;10.152;2023-03-11T15:09:20;12.10;40.40
30304;DHT22;17112;48.636;10.152;2023-03-11T15:11:58;12.00;40.30
30304;DHT22;17112;48.636;10.152;2023-03-11T15:14:26;11.90;39.50
30304;DHT22;17112;48.636;10.152;2023-03-11T15:16:54;11.70;39.20
30304;DHT22;17112;48.636;10.152;2023-03-11T15:19:21;11.60;40.40
30304;DHT22;17112;48.636;10.152;2023-03-11T15:21:49;11.50;40.90
30304;DHT22;17112;48.636;10.152;2023-03-11T15:24:23;11.50;40.90
30304;DHT22;17112;48.636;10.152;2023-03-11T15:26:55;11.50;41.00
30304;DHT22;17112;48.636;10.152;2023-03-11T15:29:21;11.50;40.70
30304;DHT22;17112;48.636;10.152;2023-03-11T15:31:47;11.40;40.40
30304;DHT22;17112;48.636;10.152;2023-03-11T15:47:01;10.40;40.90
30304;DHT22;17112;48.636;10.152;2023-03-11T15:49:27;10.30;41.10
30304;DHT22;17112;48.636;10.152;2023-03-11T15:52:00;10.10;41.50
30304;DHT22;17112;48.636;10.152;2023-03-11T15:54:27;10.00;41.40
30304;DHT22;17112;48.636;10.152;2023-03-11T15:56:55;9.90;41.60
30304;DHT22;17112;48.636;10.152;2023-03-11T15:59:22;9.80;41.40
30304;DHT22;17112;48.636;10.152;2023-03-11T16:01:48;9.70;42.00
30304;DHT22;17112;48.636;10.152;2023-03-11T16:04:17;9.60;42.10
30304;DHT22;17112;48.636;10.152;2023-03-11T16:06:43;9.60;42.10
30304;DHT22;17112;48.636;10.152;2023-03-11T16:09:11;9.60;42.30
30304;DHT22;17112;48.636;10.152;2023-03-11T16:11:38;9.50;42.10
30304;DHT22;17112;48.636;10.152;2023-03-11T16:14:04;9.50;42.40
30304;DHT22;17112;48.636;10.152;2023-03-11T16:16:30;9.50;42.30
30304;DHT22;17112;48.636;10.152;2023-03-11T16:18:56;9.50;42.70
30304;DHT22;17112;48.636;10.152;2023-03-11T16:21:23;9.40;42.60
30304;DHT22;17112;48.636;10.152;2023-03-11T16:23:52;9.40;42.70
30304;DHT22;17112;48.636;10.152;2023-03-11T16:26:18;9.40;42.50
30304;DHT22;17112;48.636;10.152;2023-03-11T16:28:43;9.20;42.40
30304;DHT22;17112;48.636;10.152;2023-03-11T16:31:09;9.20;42.50
30304;DHT22;17112;48.636;10.152;2023-03-11T16:33:35;9.10;42.80
30304;DHT22;17112;48.636;10.152;2023-03-11T16:36:02;9.00;42.60
30304;DHT22;17112;48.636;10.152;2023-03-11T16:38:29;9.00;42.80
30304;DHT22;17112;48.636;10.152;2023-03-11T16:40:57;8.90;42.70
30304;DHT22;17112;48.636;10.152;2023-03-11T16:43:24;8.80;43.10
30304;DHT22;17112;48.636;10.152;2023-03-11T16:45:50;8.70;43.00
30304;DHT22;17112;48.636;10.152;2023-03-11T16:48:18;8.60;43.20
30304;DHT22;17112;48.636;10.152;2023-03-11T16:50:43;8.60;43.30
30304;DHT22;17112;48.636;10.152;2023-03-11T16:53:09;8.50;43.10
30304;DHT22;17112;48.636;10.152;2023-03-11T16:55:35;8.40;43.30
30304;DHT22;17112;48.636;10.152;2023-03-11T16:58:00;8.40;43.60
30304;DHT22;17112;48.636;10.152;2023-03-11T17:00:26;8.30;43.80
30304;DHT22;17112;48.636;10.152;2023-03-11T17:02:52;8.30;44.20
30304;DHT22;17112;48.636;10.152;2023-03-11T17:05:17;8.30;44.10
30304;DHT22;17112;48.636;10.152;2023-03-11T17:07:43;8.30;44.10
30304;DHT22;17112;48.636;10.152;2023-03-11T17:10:10;8.20;44.20
30304;DHT22;17112;48.636;10.152;2023-03-11T17:12:36;8.20;44.10
30304;DHT22;17112;48.636;10.152;2023-03-11T17:15:03;8.20;44.30
30304;DHT22;17112;48.636;10.152;2023-03-11T17:17:29;8.10;44.30
30304;DHT22;17112;48.636;10.152;2023-03-11T17:19:55;8.10;44.50
30304;DHT22;17112;48.636;10.152;2023-03-11T17:22:21;8.10;44.50
30304;DHT22;17112;48.636;10.152;2023-03-11T17:24:46;8.00;44.60
30304;DHT22;17112;48.636;10.152;2023-03-11T17:27:12;8.00;44.70
30304;DHT22;17112;48.636;10.152;2023-03-11T17:29:38;8.00;44.80
30304;DHT22;17112;48.636;10.152;2023-03-11T17:32:03;7.90;45.00
30304;DHT22;17112;48.636;10.152;2023-03-11T17:34:31;7.90;45.00
30304;DHT22;17112;48.636;10.152;2023-03-11T17:36:56;7.90;45.10
30304;DHT22;17112;48.636;10.152;2023-03-11T17:39:22;7.90;45.40
30304;DHT22;17112;48.636;10.152;2023-03-11T17:41:48;7.90;45.40